Star Lake, Wisconsin
Current Conditions -  °F | °C
As of 12:35 AM on Sunday 21 Dec 2014 (Local Time) from KEGV Reporting Station
Haze Haze  
Wind Chill: 21°   Ceiling: 800
Heat Index: 27°   Visibility: 5mi
Dew Point: 26°   Wind: 5mph
Humidity: 98%   Direction: 170°S
Pressure: 30.1"   Gusts: NA
Location:  46.04°N, 89.47°W
Report Text: KEGV 210635Z AUTO 17004KT 5SM BR OVC008 M03/M03 A3010 RMK AO2 T10301033
Loading
Personal Weather Stations






























Interactive Weather Map New forecast layout! Learn more

10-Day Weather Forecast

Advertisements
Track Severe Weather on mobile